sensor_id;sensor_type;location;lat;lon;timestamp;pressure;altitude;pressure_sealevel;temperature;humidity
44297;BME280;51842;47.450;8.654;2024-02-21T00:00:57;96519.78;;;0.25;100.00
44297;BME280;51842;47.450;8.654;2024-02-21T00:03:23;96516.34;;;0.24;100.00
44297;BME280;51842;47.450;8.654;2024-02-21T00:05:49;96519.78;;;0.25;100.00
44297;BME280;51842;47.450;8.654;2024-02-21T00:08:15;96523.19;;;0.25;100.00
44297;BME280;51842;47.450;8.654;2024-02-21T00:10:40;96520.41;;;0.27;100.00
44297;BME280;51842;47.450;8.654;2024-02-21T00:13:06;96512.97;;;0.15;100.00
44297;BME280;51842;47.450;8.654;2024-02-21T00:15:32;96512.16;;;0.15;100.00
44297;BME280;51842;47.450;8.654;2024-02-21T00:17:58;96509.53;;;0.15;100.00
44297;BME280;51842;47.450;8.654;2024-02-21T00:20:24;96513.50;;;0.11;100.00
44297;BME280;51842;47.450;8.654;2024-02-21T00:22:51;96513.97;;;0.14;100.00
44297;BME280;51842;47.450;8.654;2024-02-21T00:25:17;96514.25;;;0.19;100.00
44297;BME280;51842;47.450;8.654;2024-02-21T00:27:43;96505.94;;;0.16;100.00
44297;BME280;51842;47.450;8.654;2024-02-21T00:30:10;96499.88;;;0.15;100.00
44297;BME280;51842;47.450;8.654;2024-02-21T00:32:36;96495.16;;;0.11;100.00
44297;BME280;51842;47.450;8.654;2024-02-21T00:35:02;96493.91;;;0.07;100.00
44297;BME280;51842;47.450;8.654;2024-02-21T00:37:28;96487.75;;;0.14;100.00
44297;BME280;51842;47.450;8.654;2024-02-21T00:39:55;96492.56;;;0.11;100.00
44297;BME280;51842;47.450;8.654;2024-02-21T00:42:20;96491.09;;;0.08;100.00
44297;BME280;51842;47.450;8.654;2024-02-21T00:44:47;96476.72;;;0.04;100.00
44297;BME280;51842;47.450;8.654;2024-02-21T00:47:13;96476.38;;;0.07;100.00
44297;BME280;51842;47.450;8.654;2024-02-21T00:49:38;96472.94;;;0.07;100.00
44297;BME280;51842;47.450;8.654;2024-02-21T00:52:04;96470.03;;;0.02;100.00
44297;BME280;51842;47.450;8.654;2024-02-21T00:54:30;96479.50;;;0.03;100.00
44297;BME280;51842;47.450;8.654;2024-02-21T00:56:56;96458.56;;;0.03;100.00
44297;BME280;51842;47.450;8.654;2024-02-21T00:59:22;96458.75;;;0.01;100.00
44297;BME280;51842;47.450;8.654;2024-02-21T01:01:48;96459.25;;;-0.04;100.00
44297;BME280;51842;47.450;8.654;2024-02-21T01:04:13;96461.72;;;-0.02;100.00
44297;BME280;51842;47.450;8.654;2024-02-21T01:06:39;96466.16;;;-0.03;100.00
44297;BME280;51842;47.450;8.654;2024-02-21T01:09:08;96460.47;;;0.09;100.00
44297;BME280;51842;47.450;8.654;2024-02-21T01:11:34;96470.25;;;0.15;100.00
44297;BME280;51842;47.450;8.654;2024-02-21T01:14:00;96475.13;;;0.18;100.00
44297;BME280;51842;47.450;8.654;2024-02-21T01:16:26;96471.25;;;0.14;100.00
44297;BME280;51842;47.450;8.654;2024-02-21T01:18:52;96468.16;;;0.10;100.00
44297;BME280;51842;47.450;8.654;2024-02-21T01:21:18;96474.84;;;0.13;100.00
44297;BME280;51842;47.450;8.654;2024-02-21T01:23:44;96477.94;;;0.16;100.00
44297;BME280;51842;47.450;8.654;2024-02-21T01:26:10;96466.28;;;0.19;100.00
44297;BME280;51842;47.450;8.654;2024-02-21T01:28:38;96469.72;;;0.19;100.00
44297;BME280;51842;47.450;8.654;2024-02-21T01:31:05;96470.97;;;0.23;100.00
44297;BME280;51842;47.450;8.654;2024-02-21T01:33:30;96478.28;;;0.28;100.00
44297;BME280;51842;47.450;8.654;2024-02-21T01:36:02;96463.06;;;0.32;100.00
44297;BME280;51842;47.450;8.654;2024-02-21T01:38:28;96463.88;;;0.32;100.00
44297;BME280;51842;47.450;8.654;2024-02-21T01:40:55;96462.69;;;0.35;100.00
44297;BME280;51842;47.450;8.654;2024-02-21T01:43:22;96450.22;;;0.37;100.00
44297;BME280;51842;47.450;8.654;2024-02-21T01:45:56;96447.22;;;0.40;100.00
44297;BME280;51842;47.450;8.654;2024-02-21T01:48:24;96450.50;;;0.42;100.00
44297;BME280;51842;47.450;8.654;2024-02-21T01:50:52;96452.31;;;0.41;100.00
44297;BME280;51842;47.450;8.654;2024-02-21T01:53:27;96444.91;;;0.45;100.00
44297;BME280;51842;47.450;8.654;2024-02-21T01:55:55;96434.84;;;0.49;100.00
44297;BME280;51842;47.450;8.654;2024-02-21T01:58:22;96434.06;;;0.48;100.00
44297;BME280;51842;47.450;8.654;2024-02-21T02:00:48;96424.00;;;0.52;100.00
44297;BME280;51842;47.450;8.654;2024-02-21T02:03:15;96424.28;;;0.57;100.00
44297;BME280;51842;47.450;8.654;2024-02-21T02:05:47;96421.13;;;0.61;100.00
44297;BME280;51842;47.450;8.654;2024-02-21T02:08:18;96411.63;;;0.60;100.00
44297;BME280;51842;47.450;8.654;2024-02-21T02:10:45;96417.13;;;0.65;100.00
44297;BME280;51842;47.450;8.654;2024-02-21T02:13:12;96412.59;;;0.74;100.00
44297;BME280;51842;47.450;8.654;2024-02-21T02:15:47;96406.81;;;0.79;100.00
44297;BME280;51842;47.450;8.654;2024-02-21T02:18:15;96407.28;;;0.82;100.00
44297;BME280;51842;47.450;8.654;2024-02-21T02:20:41;96412.59;;;0.89;100.00
44297;BME280;51842;47.450;8.654;2024-02-21T02:23:27;96408.59;;;0.93;100.00
44297;BME280;51842;47.450;8.654;2024-02-21T02:25:53;96409.25;;;0.95;100.00
44297;BME280;51842;47.450;8.654;2024-02-21T02:28:20;96395.13;;;0.96;100.00
44297;BME280;51842;47.450;8.654;2024-02-21T02:30:47;96390.94;;;1.02;100.00
44297;BME280;51842;47.450;8.654;2024-02-21T02:33:14;96380.44;;;1.02;100.00
44297;BME280;51842;47.450;8.654;2024-02-21T02:35:40;96376.81;;;1.03;100.00
44297;BME280;51842;47.450;8.654;2024-02-21T02:38:06;96373.38;;;1.02;100.00
44297;BME280;51842;47.450;8.654;2024-02-21T02:40:35;96374.56;;;1.00;100.00
44297;BME280;51842;47.450;8.654;2024-02-21T02:43:02;96374.25;;;1.09;100.00
44297;BME280;51842;47.450;8.654;2024-02-21T02:45:29;96369.28;;;1.14;100.00
44297;BME280;51842;47.450;8.654;2024-02-21T02:47:56;96365.03;;;1.13;100.00
44297;BME280;51842;47.450;8.654;2024-02-21T02:50:24;96371.72;;;1.16;100.00
44297;BME280;51842;47.450;8.654;2024-02-21T02:52:50;96362.03;;;1.17;100.00
44297;BME280;51842;47.450;8.654;2024-02-21T02:55:16;96366.47;;;1.16;100.00
44297;BME280;51842;47.450;8.654;2024-02-21T02:57:43;96357.22;;;1.20;100.00
44297;BME280;51842;47.450;8.654;2024-02-21T03:00:13;96353.59;;;1.21;100.00
44297;BME280;51842;47.450;8.654;2024-02-21T03:02:46;96343.91;;;1.22;100.00
44297;BME280;51842;47.450;8.654;2024-02-21T03:05:20;96347.16;;;1.24;100.00
44297;BME280;51842;47.450;8.654;2024-02-21T03:07:47;96336.47;;;1.25;100.00
44297;BME280;51842;47.450;8.654;2024-02-21T03:10:14;96333.66;;;1.27;100.00
44297;BME280;51842;47.450;8.654;2024-02-21T03:12:42;96332.66;;;1.28;100.00
44297;BME280;51842;47.450;8.654;2024-02-21T03:15:08;96324.63;;;1.29;100.00
44297;BME280;51842;47.450;8.654;2024-02-21T03:17:35;96314.53;;;1.33;100.00
44297;BME280;51842;47.450;8.654;2024-02-21T03:20:06;96313.16;;;1.37;100.00
44297;BME280;51842;47.450;8.654;2024-02-21T03:22:36;96297.66;;;1.42;100.00
44297;BME280;51842;47.450;8.654;2024-02-21T03:25:02;96292.41;;;1.42;100.00
44297;BME280;51842;47.450;8.654;2024-02-21T03:27:28;96289.34;;;1.38;100.00
44297;BME280;51842;47.450;8.654;2024-02-21T03:29:54;96297.66;;;1.42;100.00
44297;BME280;51842;47.450;8.654;2024-02-21T03:32:20;96288.59;;;1.45;100.00
44297;BME280;51842;47.450;8.654;2024-02-21T03:34:46;96285.59;;;1.48;100.00
44297;BME280;51842;47.450;8.654;2024-02-21T03:37:12;96288.66;;;1.51;100.00
44297;BME280;51842;47.450;8.654;2024-02-21T03:39:40;96286.63;;;1.53;100.00
44297;BME280;51842;47.450;8.654;2024-02-21T03:42:06;96278.31;;;1.50;100.00
44297;BME280;51842;47.450;8.654;2024-02-21T03:44:32;96267.06;;;1.56;100.00
44297;BME280;51842;47.450;8.654;2024-02-21T03:46:59;96260.22;;;1.61;100.00
44297;BME280;51842;47.450;8.654;2024-02-21T03:49:26;96251.53;;;1.61;100.00
44297;BME280;51842;47.450;8.654;2024-02-21T03:51:52;96251.31;;;1.56;100.00
44297;BME280;51842;47.450;8.654;2024-02-21T03:54:19;96252.09;;;1.56;100.00
44297;BME280;51842;47.450;8.654;2024-02-21T03:56:44;96246.47;;;1.59;100.00
44297;BME280;51842;47.450;8.654;2024-02-21T03:59:10;96246.94;;;1.63;100.00
44297;BME280;51842;47.450;8.654;2024-02-21T04:01:36;96245.69;;;1.66;100.00
44297;BME280;51842;47.450;8.654;2024-02-21T04:04:03;96238.47;;;1.68;100.00
44297;BME280;51842;47.450;8.654;2024-02-21T04:06:28;96241.50;;;1.71;100.00
44297;BME280;51842;47.450;8.654;2024-02-21T04:08:54;96245.75;;;1.72;100.00
44297;BME280;51842;47.450;8.654;2024-02-21T04:11:21;96238.31;;;1.76;100.00
44297;BME280;51842;47.450;8.654;2024-02-21T04:13:47;96235.88;;;1.74;100.00
44297;BME280;51842;47.450;8.654;2024-02-21T04:16:16;96234.03;;;1.75;100.00
44297;BME280;51842;47.450;8.654;2024-02-21T04:18:43;96221.28;;;1.72;100.00
44297;BME280;51842;47.450;8.654;2024-02-21T04:21:14;96233.84;;;1.70;100.00
44297;BME280;51842;47.450;8.654;2024-02-21T04:23:40;96226.34;;;1.67;100.00
44297;BME280;51842;47.450;8.654;2024-02-21T04:26:05;96223.28;;;1.63;100.00
44297;BME280;51842;47.450;8.654;2024-02-21T04:28:31;96222.84;;;1.59;100.00
44297;BME280;51842;47.450;8.654;2024-02-21T04:30:57;96231.09;;;1.56;100.00
44297;BME280;51842;47.450;8.654;2024-02-21T04:33:23;96228.25;;;1.51;100.00
44297;BME280;51842;47.450;8.654;2024-02-21T04:35:48;96236.69;;;1.47;100.00
44297;BME280;51842;47.450;8.654;2024-02-21T04:38:14;96235.06;;;1.46;100.00
44297;BME280;51842;47.450;8.654;2024-02-21T04:40:40;96231.22;;;1.42;100.00
44297;BME280;51842;47.450;8.654;2024-02-21T04:43:06;96234.22;;;1.38;100.00
44297;BME280;51842;47.450;8.654;2024-02-21T04:45:32;96234.41;;;1.37;100.00
44297;BME280;51842;47.450;8.654;2024-02-21T04:47:57;96235.41;;;1.36;100.00
44297;BME280;51842;47.450;8.654;2024-02-21T04:50:23;96229.53;;;1.34;100.00
44297;BME280;51842;47.450;8.654;2024-02-21T04:52:49;96232.75;;;1.29;100.00
44297;BME280;51842;47.450;8.654;2024-02-21T04:55:15;96224.22;;;1.27;100.00
44297;BME280;51842;47.450;8.654;2024-02-21T04:57:41;96224.88;;;1.29;100.00
44297;BME280;51842;47.450;8.654;2024-02-21T05:00:08;96207.69;;;1.27;100.00
44297;BME280;51842;47.450;8.654;2024-02-21T05:02:34;96205.56;;;1.15;100.00
44297;BME280;51842;47.450;8.654;2024-02-21T05:05:00;96198.31;;;1.18;100.00
44297;BME280;51842;47.450;8.654;2024-02-21T05:07:26;96192.44;;;1.15;100.00
44297;BME280;51842;47.450;8.654;2024-02-21T05:09:52;96190.88;;;1.21;100.00
44297;BME280;51842;47.450;8.654;2024-02-21T05:12:18;96187.63;;;1.19;100.00
44297;BME280;51842;47.450;8.654;2024-02-21T05:14:44;96189.81;;;1.15;100.00
44297;BME280;51842;47.450;8.654;2024-02-21T05:17:10;96190.41;;;1.11;100.00
44297;BME280;51842;47.450;8.654;2024-02-21T05:19:35;96182.53;;;1.11;100.00
44297;BME280;51842;47.450;8.654;2024-02-21T05:22:01;96193.66;;;1.13;100.00
44297;BME280;51842;47.450;8.654;2024-02-21T05:24:27;96196.47;;;1.11;100.00
44297;BME280;51842;47.450;8.654;2024-02-21T05:26:54;96188.97;;;1.08;100.00
44297;BME280;51842;47.450;8.654;2024-02-21T05:29:19;96179.84;;;1.04;100.00
44297;BME280;51842;47.450;8.654;2024-02-21T05:34:21;96167.25;;;0.93;100.00
44297;BME280;51842;47.450;8.654;2024-02-21T05:36:47;96161.88;;;1.01;100.00
44297;BME280;51842;47.450;8.654;2024-02-21T05:39:16;96165.31;;;1.02;100.00
44297;BME280;51842;47.450;8.654;2024-02-21T05:41:43;96173.72;;;0.97;100.00
44297;BME280;51842;47.450;8.654;2024-02-21T05:44:09;96178.38;;;0.95;100.00
44297;BME280;51842;47.450;8.654;2024-02-21T05:46:35;96184.63;;;0.94;100.00
44297;BME280;51842;47.450;8.654;2024-02-21T05:49:01;96182.19;;;0.92;100.00
44297;BME280;51842;47.450;8.654;2024-02-21T05:51:26;96184.38;;;0.89;100.00
44297;BME280;51842;47.450;8.654;2024-02-21T05:53:52;96175.31;;;0.91;100.00
44297;BME280;51842;47.450;8.654;2024-02-21T05:56:18;96172.06;;;0.89;100.00
44297;BME280;51842;47.450;8.654;2024-02-21T05:58:44;96164.56;;;0.86;100.00
44297;BME280;51842;47.450;8.654;2024-02-21T06:01:11;96158.09;;;0.82;100.00
44297;BME280;51842;47.450;8.654;2024-02-21T06:03:37;96161.09;;;0.79;100.00
44297;BME280;51842;47.450;8.654;2024-02-21T06:06:03;96151.41;;;0.80;100.00
44297;BME280;51842;47.450;8.654;2024-02-21T06:08:30;96145.53;;;0.78;100.00
44297;BME280;51842;47.450;8.654;2024-02-21T06:10:57;96141.28;;;0.77;100.00
44297;BME280;51842;47.450;8.654;2024-02-21T06:13:27;96145.72;;;0.76;100.00
44297;BME280;51842;47.450;8.654;2024-02-21T06:15:53;96143.91;;;0.77;100.00
44297;BME280;51842;47.450;8.654;2024-02-21T06:18:20;96136.84;;;0.77;100.00
44297;BME280;51842;47.450;8.654;2024-02-21T06:20:47;96135.25;;;0.76;100.00
44297;BME280;51842;47.450;8.654;2024-02-21T06:23:15;96128.34;;;0.75;100.00
44297;BME280;51842;47.450;8.654;2024-02-21T06:25:42;96134.56;;;0.67;100.00
44297;BME280;51842;47.450;8.654;2024-02-21T06:28:09;96137.44;;;0.73;100.00
44297;BME280;51842;47.450;8.654;2024-02-21T06:30:36;96141.28;;;0.77;100.00
44297;BME280;51842;47.450;8.654;2024-02-21T06:33:02;96140.50;;;0.76;100.00
44297;BME280;51842;47.450;8.654;2024-02-21T06:35:28;96141.03;;;0.72;100.00
44297;BME280;51842;47.450;8.654;2024-02-21T06:37:55;96142.31;;;0.76;100.00
44297;BME280;51842;47.450;8.654;2024-02-21T06:40:23;96148.53;;;0.75;100.00
44297;BME280;51842;47.450;8.654;2024-02-21T06:42:50;96152.78;;;0.76;100.00
44297;BME280;51842;47.450;8.654;2024-02-21T06:45:16;96152.78;;;0.76;100.00
44297;BME280;51842;47.450;8.654;2024-02-21T06:47:43;96153.59;;;0.76;100.00
44297;BME280;51842;47.450;8.654;2024-02-21T06:50:09;96143.28;;;0.75;100.00
44297;BME280;51842;47.450;8.654;2024-02-21T06:52:36;96146.53;;;0.77;100.00
44297;BME280;51842;47.450;8.654;2024-02-21T06:55:03;96147.16;;;0.79;100.00
44297;BME280;51842;47.450;8.654;2024-02-21T06:57:30;96143.53;;;0.80;100.00
44297;BME280;51842;47.450;8.654;2024-02-21T06:59:55;96155.25;;;0.84;100.00
44297;BME280;51842;47.450;8.654;2024-02-21T07:02:21;96153.28;;;0.86;100.00
44297;BME280;51842;47.450;8.654;2024-02-21T07:04:47;96159.16;;;0.88;100.00
44297;BME280;51842;47.450;8.654;2024-02-21T07:07:13;96167.63;;;0.90;100.00
44297;BME280;51842;47.450;8.654;2024-02-21T07:09:39;96166.25;;;0.94;100.00
44297;BME280;51842;47.450;8.654;2024-02-21T07:12:06;96164.25;;;0.96;100.00
44297;BME280;51842;47.450;8.654;2024-02-21T07:14:36;96169.31;;;0.98;100.00
44297;BME280;51842;47.450;8.654;2024-02-21T07:17:02;96165.72;;;1.05;100.00
44297;BME280;51842;47.450;8.654;2024-02-21T07:19:29;96158.09;;;1.10;100.00
44297;BME280;51842;47.450;8.654;2024-02-21T07:21:54;96161.78;;;1.16;100.00
44297;BME280;51842;47.450;8.654;2024-02-21T07:24:20;96152.72;;;1.25;100.00
44297;BME280;51842;47.450;8.654;2024-02-21T07:26:46;96152.41;;;1.35;100.00
44297;BME280;51842;47.450;8.654;2024-02-21T07:29:12;96157.31;;;1.45;100.00
44297;BME280;51842;47.450;8.654;2024-02-21T07:31:41;96151.50;;;1.56;100.00
44297;BME280;51842;47.450;8.654;2024-02-21T07:34:08;96155.03;;;1.70;100.00
44297;BME280;51842;47.450;8.654;2024-02-21T07:36:34;96148.22;;;1.82;100.00
44297;BME280;51842;47.450;8.654;2024-02-21T07:39:00;96156.97;;;1.96;100.00
44297;BME280;51842;47.450;8.654;2024-02-21T07:41:26;96154.59;;;2.07;100.00
44297;BME280;51842;47.450;8.654;2024-02-21T07:43:54;96144.50;;;2.24;100.00
44297;BME280;51842;47.450;8.654;2024-02-21T07:46:19;96139.50;;;2.43;100.00
44297;BME280;51842;47.450;8.654;2024-02-21T07:48:46;96132.25;;;2.65;100.00
44297;BME280;51842;47.450;8.654;2024-02-21T07:51:13;96137.94;;;2.95;100.00
44297;BME280;51842;47.450;8.654;2024-02-21T07:53:39;96130.22;;;3.27;100.00
44297;BME280;51842;47.450;8.654;2024-02-21T07:56:11;96132.75;;;3.60;100.00
44297;BME280;51842;47.450;8.654;2024-02-21T07:58:37;96128.22;;;3.87;100.00
44297;BME280;51842;47.450;8.654;2024-02-21T08:01:04;96121.03;;;4.07;100.00
44297;BME280;51842;47.450;8.654;2024-02-21T08:03:29;96117.13;;;4.23;100.00
44297;BME280;51842;47.450;8.654;2024-02-21T08:05:55;96114.41;;;4.36;100.00
44297;BME280;51842;47.450;8.654;2024-02-21T08:08:21;96112.28;;;4.52;100.00
44297;BME280;51842;47.450;8.654;2024-02-21T08:10:49;96115.63;;;4.66;100.00
44297;BME280;51842;47.450;8.654;2024-02-21T08:13:15;96107.88;;;4.71;97.31
44297;BME280;51842;47.450;8.654;2024-02-21T08:15:41;96113.69;;;4.79;94.81
44297;BME280;51842;47.450;8.654;2024-02-21T08:18:08;96112.13;;;4.97;94.75
44297;BME280;51842;47.450;8.654;2024-02-21T08:20:34;96109.75;;;5.14;94.37
44297;BME280;51842;47.450;8.654;2024-02-21T08:23:01;96108.81;;;5.26;93.34
44297;BME280;51842;47.450;8.654;2024-02-21T08:25:27;96106.44;;;5.43;91.61
44297;BME280;51842;47.450;8.654;2024-02-21T08:27:59;96107.16;;;5.69;90.38
44297;BME280;51842;47.450;8.654;2024-02-21T08:30:25;96105.25;;;5.94;87.05
44297;BME280;51842;47.450;8.654;2024-02-21T08:32:51;96105.75;;;6.21;87.87
44297;BME280;51842;47.450;8.654;2024-02-21T08:35:19;96095.78;;;6.35;82.13
44297;BME280;51842;47.450;8.654;2024-02-21T08:37:48;96094.00;;;6.59;81.36
44297;BME280;51842;47.450;8.654;2024-02-21T08:40:15;96099.47;;;6.88;80.23
44297;BME280;51842;47.450;8.654;2024-02-21T08:42:44;96092.94;;;7.14;77.54
44297;BME280;51842;47.450;8.654;2024-02-21T08:45:10;96095.94;;;7.29;72.12
44297;BME280;51842;47.450;8.654;2024-02-21T08:47:39;96097.88;;;7.57;72.07
44297;BME280;51842;47.450;8.654;2024-02-21T08:50:08;96098.97;;;7.85;71.53
44297;BME280;51842;47.450;8.654;2024-02-21T08:52:35;96086.34;;;8.04;70.01
44297;BME280;51842;47.450;8.654;2024-02-21T08:55:01;96082.94;;;8.20;69.47
44297;BME280;51842;47.450;8.654;2024-02-21T08:57:27;96081.59;;;8.46;68.12
44297;BME280;51842;47.450;8.654;2024-02-21T08:59:54;96082.31;;;8.58;67.10
44297;BME280;51842;47.450;8.654;2024-02-21T09:02:19;96076.06;;;8.65;65.11
44297;BME280;51842;47.450;8.654;2024-02-21T09:04:45;96071.56;;;8.82;65.03
44297;BME280;51842;47.450;8.654;2024-02-21T09:07:11;96082.28;;;9.04;64.05
44297;BME280;51842;47.450;8.654;2024-02-21T09:09:38;96076.47;;;9.24;64.01
44297;BME280;51842;47.450;8.654;2024-02-21T09:12:07;96076.13;;;9.37;62.77
44297;BME280;51842;47.450;8.654;2024-02-21T09:14:36;96077.16;;;9.53;62.79
44297;BME280;51842;47.450;8.654;2024-02-21T09:17:04;96075.69;;;9.62;62.98
44297;BME280;51842;47.450;8.654;2024-02-21T09:19:29;96077.41;;;9.73;60.85
44297;BME280;51842;47.450;8.654;2024-02-21T09:21:55;96063.91;;;9.80;61.27
44297;BME280;51842;47.450;8.654;2024-02-21T09:24:21;96071.66;;;10.04;62.85
44297;BME280;51842;47.450;8.654;2024-02-21T09:26:47;96065.72;;;10.18;61.70
44297;BME280;51842;47.450;8.654;2024-02-21T09:29:13;96070.75;;;10.20;62.49
44297;BME280;51842;47.450;8.654;2024-02-21T09:31:38;96066.22;;;10.15;62.09
44297;BME280;51842;47.450;8.654;2024-02-21T09:34:05;96074.13;;;10.10;63.79
44297;BME280;51842;47.450;8.654;2024-02-21T09:36:31;96060.13;;;9.98;63.23
44297;BME280;51842;47.450;8.654;2024-02-21T09:38:56;96057.72;;;10.18;61.82
44297;BME280;51842;47.450;8.654;2024-02-21T09:41:27;96058.50;;;10.41;61.79
44297;BME280;51842;47.450;8.654;2024-02-21T09:43:53;96058.75;;;10.39;61.12
44297;BME280;51842;47.450;8.654;2024-02-21T09:49:31;96053.25;;;10.78;62.49
44297;BME280;51842;47.450;8.654;2024-02-21T09:52:07;96050.38;;;10.85;59.07
44297;BME280;51842;47.450;8.654;2024-02-21T09:54:35;96044.94;;;11.07;59.37
44297;BME280;51842;47.450;8.654;2024-02-21T09:57:02;96044.50;;;11.20;58.43
44297;BME280;51842;47.450;8.654;2024-02-21T09:59:32;96036.44;;;11.15;57.90
44297;BME280;51842;47.450;8.654;2024-02-21T10:01:59;96039.03;;;11.05;57.94
44297;BME280;51842;47.450;8.654;2024-02-21T10:04:30;96035.41;;;11.21;59.30
44297;BME280;51842;47.450;8.654;2024-02-21T10:06:56;96040.63;;;11.43;56.44
44297;BME280;51842;47.450;8.654;2024-02-21T10:09:28;96046.16;;;11.79;56.43
44297;BME280;51842;47.450;8.654;2024-02-21T10:11:56;96039.88;;;11.53;55.52
44297;BME280;51842;47.450;8.654;2024-02-21T10:14:32;96034.31;;;11.65;54.93
44297;BME280;51842;47.450;8.654;2024-02-21T10:16:58;96032.09;;;11.41;55.91
44297;BME280;51842;47.450;8.654;2024-02-21T10:19:24;96028.22;;;11.74;56.46
44297;BME280;51842;47.450;8.654;2024-02-21T10:22:09;96029.53;;;11.72;53.46
44297;BME280;51842;47.450;8.654;2024-02-21T10:24:37;96023.25;;;11.93;54.74
44297;BME280;51842;47.450;8.654;2024-02-21T10:27:09;96024.50;;;11.80;56.00
44297;BME280;51842;47.450;8.654;2024-02-21T10:29:40;96021.09;;;11.90;55.56
44297;BME280;51842;47.450;8.654;2024-02-21T10:32:14;96014.00;;;12.21;53.72
44297;BME280;51842;47.450;8.654;2024-02-21T10:34:42;96021.22;;;12.36;53.00
44297;BME280;51842;47.450;8.654;2024-02-21T10:37:10;96007.66;;;12.63;54.16
44297;BME280;51842;47.450;8.654;2024-02-21T10:39:40;96008.16;;;12.81;52.39
44297;BME280;51842;47.450;8.654;2024-02-21T10:42:07;95997.22;;;12.98;52.23
44297;BME280;51842;47.450;8.654;2024-02-21T10:44:40;96004.13;;;13.09;55.62
44297;BME280;51842;47.450;8.654;2024-02-21T10:47:12;95997.97;;;13.24;51.42
44297;BME280;51842;47.450;8.654;2024-02-21T10:49:48;95997.97;;;13.18;50.33
44297;BME280;51842;47.450;8.654;2024-02-21T10:56:11;95985.66;;;13.28;52.15
44297;BME280;51842;47.450;8.654;2024-02-21T10:58:42;95982.16;;;13.42;51.44
44297;BME280;51842;47.450;8.654;2024-02-21T11:01:09;95973.88;;;13.24;53.92
44297;BME280;51842;47.450;8.654;2024-02-21T11:03:36;95973.09;;;13.23;51.70
44297;BME280;51842;47.450;8.654;2024-02-21T11:06:03;95960.00;;;13.11;51.83
44297;BME280;51842;47.450;8.654;2024-02-21T11:08:31;95962.13;;;13.25;52.29
44297;BME280;51842;47.450;8.654;2024-02-21T11:10:59;95955.94;;;13.45;51.28
44297;BME280;51842;47.450;8.654;2024-02-21T11:13:52;95944.94;;;13.41;49.84
44297;BME280;51842;47.450;8.654;2024-02-21T11:16:23;95940.13;;;13.48;51.05
44297;BME280;51842;47.450;8.654;2024-02-21T11:18:49;95936.13;;;13.40;51.01
44297;BME280;51842;47.450;8.654;2024-02-21T11:21:15;95936.00;;;13.76;51.12
44297;BME280;51842;47.450;8.654;2024-02-21T11:23:41;95928.75;;;14.16;49.27
44297;BME280;51842;47.450;8.654;2024-02-21T11:26:19;95916.59;;;14.34;49.55
44297;BME280;51842;47.450;8.654;2024-02-21T11:28:59;95909.41;;;14.29;48.34
44297;BME280;51842;47.450;8.654;2024-02-21T11:31:26;95914.84;;;14.53;50.12
44297;BME280;51842;47.450;8.654;2024-02-21T11:33:55;95898.69;;;14.64;49.23
44297;BME280;51842;47.450;8.654;2024-02-21T11:36:27;95899.13;;;14.42;48.31
44297;BME280;51842;47.450;8.654;2024-02-21T11:38:54;95896.25;;;14.28;50.06
44297;BME280;51842;47.450;8.654;2024-02-21T11:41:20;95892.31;;;14.20;49.31
44297;BME280;51842;47.450;8.654;2024-02-21T11:43:49;95884.47;;;14.29;50.45
44297;BME280;51842;47.450;8.654;2024-02-21T11:46:16;95874.16;;;14.46;50.49
44297;BME280;51842;47.450;8.654;2024-02-21T11:48:43;95870.75;;;14.70;48.95
44297;BME280;51842;47.450;8.654;2024-02-21T11:51:24;95864.22;;;14.52;46.80
44297;BME280;51842;47.450;8.654;2024-02-21T11:53:55;95850.03;;;14.51;48.03
44297;BME280;51842;47.450;8.654;2024-02-21T11:56:21;95852.28;;;14.63;49.06
44297;BME280;51842;47.450;8.654;2024-02-21T11:58:49;95848.09;;;14.81;46.17
44297;BME280;51842;47.450;8.654;2024-02-21T12:01:15;95842.91;;;15.14;46.06
44297;BME280;51842;47.450;8.654;2024-02-21T12:03:43;95842.91;;;15.14;46.32
44297;BME280;51842;47.450;8.654;2024-02-21T12:06:16;95839.28;;;15.04;46.46
44297;BME280;51842;47.450;8.654;2024-02-21T12:08:47;95837.66;;;14.79;43.64
44297;BME280;51842;47.450;8.654;2024-02-21T12:11:23;95836.41;;;14.43;46.99
44297;BME280;51842;47.450;8.654;2024-02-21T12:14:03;95834.41;;;14.58;45.81
44297;BME280;51842;47.450;8.654;2024-02-21T12:16:32;95818.53;;;14.62;45.59
44297;BME280;51842;47.450;8.654;2024-02-21T12:19:00;95826.69;;;14.47;45.37
44297;BME280;51842;47.450;8.654;2024-02-21T12:21:30;95819.22;;;14.44;47.60
44297;BME280;51842;47.450;8.654;2024-02-21T12:24:00;95818.13;;;14.16;48.53
44297;BME280;51842;47.450;8.654;2024-02-21T12:26:36;95811.22;;;14.09;48.62
44297;BME280;51842;47.450;8.654;2024-02-21T12:29:03;95804.28;;;14.08;49.30
44297;BME280;51842;47.450;8.654;2024-02-21T12:31:28;95807.09;;;14.22;47.18
44297;BME280;51842;47.450;8.654;2024-02-21T12:33:54;95797.28;;;14.42;47.28
44297;BME280;51842;47.450;8.654;2024-02-21T12:36:20;95793.22;;;14.73;48.20
44297;BME280;51842;47.450;8.654;2024-02-21T12:38:47;95791.25;;;15.03;47.37
44297;BME280;51842;47.450;8.654;2024-02-21T12:41:15;95777.06;;;15.02;46.32
44297;BME280;51842;47.450;8.654;2024-02-21T12:43:41;95776.47;;;15.06;45.17
44297;BME280;51842;47.450;8.654;2024-02-21T12:46:07;95768.47;;;15.00;48.00
44297;BME280;51842;47.450;8.654;2024-02-21T12:48:34;95766.13;;;15.18;46.14
44297;BME280;51842;47.450;8.654;2024-02-21T12:51:00;95771.31;;;15.09;45.50
44297;BME280;51842;47.450;8.654;2024-02-21T12:53:26;95764.59;;;15.12;45.97
44297;BME280;51842;47.450;8.654;2024-02-21T12:55:52;95761.72;;;14.84;48.17
44297;BME280;51842;47.450;8.654;2024-02-21T12:58:17;95752.34;;;14.81;46.32
44297;BME280;51842;47.450;8.654;2024-02-21T13:00:43;95742.81;;;14.94;45.58
44297;BME280;51842;47.450;8.654;2024-02-21T13:03:10;95744.19;;;14.44;46.73
44297;BME280;51842;47.450;8.654;2024-02-21T13:05:36;95725.34;;;14.54;46.43
44297;BME280;51842;47.450;8.654;2024-02-21T13:08:03;95722.63;;;14.78;47.01
44297;BME280;51842;47.450;8.654;2024-02-21T13:10:29;95725.25;;;14.83;45.89